Time;durP1;ratioP1;P1;durP2;ratioP2;P2;SDS_P1;SDS_P2;PMS_P1;PMS_P2;Temp;Humidity;BMP_temperature;BMP_pressure;BME280_temperature;BME280_humidity;BME280_pressure;Samples;Min_cycle;Max_cycle;Signal;HPM_P1;HPM_P2
2021/12/07 00:01:10;;;;;;;27.52;24.40;;;0.60;99.90;;;;;;5011516;28;20112;-73
2021/12/07 00:03:36;;;;;;;28.30;24.20;;;0.60;99.90;;;;;;5019978;28;20037;-72
2021/12/07 00:06:05;;;;;;;27.90;24.27;;;0.60;99.90;;;;;;5021781;28;20014;-72
2021/12/07 00:08:30;;;;;;;26.63;23.00;;;0.70;99.90;;;;;;5020821;28;20380;-72
2021/12/07 00:10:57;;;;;;;25.58;22.52;;;0.70;99.90;;;;;;5026787;28;20029;-72
2021/12/07 00:13:24;;;;;;;26.08;22.42;;;0.60;99.90;;;;;;5018351;28;20030;-73
2021/12/07 00:15:50;;;;;;;25.83;22.88;;;0.60;99.90;;;;;;5025638;28;20056;-73
2021/12/07 00:18:16;;;;;;;26.50;23.70;;;0.60;99.90;;;;;;5019875;28;20017;-72
2021/12/07 00:20:41;;;;;;;26.27;23.50;;;0.60;99.90;;;;;;5011730;28;20464;-73
2021/12/07 00:23:09;;;;;;;26.70;23.77;;;0.60;99.90;;;;;;5021875;28;20025;-72
2021/12/07 00:25:36;;;;;;;27.20;24.30;;;0.50;99.90;;;;;;5013315;28;20025;-73
2021/12/07 00:28:03;;;;;;;26.42;23.17;;;0.50;99.90;;;;;;5015103;28;20108;-72
2021/12/07 00:30:32;;;;;;;29.10;24.02;;;0.50;99.90;;;;;;5015917;28;20057;-72
2021/12/07 00:33:13;;;;;;;28.33;24.23;;;0.40;99.90;;;;;;5014509;28;20543;-73
2021/12/07 00:35:39;;;;;;;27.65;24.75;;;0.40;99.90;;;;;;5010939;28;20048;-73
2021/12/07 00:38:13;;;;;;;26.90;23.27;;;0.40;99.90;;;;;;5009973;28;20053;-73
2021/12/07 00:40:40;;;;;;;26.88;23.77;;;0.40;99.90;;;;;;5018348;28;20021;-72
2021/12/07 00:43:06;;;;;;;28.63;24.00;;;0.40;99.90;;;;;;5021391;28;20017;-73
2021/12/07 00:45:34;;;;;;;27.88;23.98;;;0.40;99.90;;;;;;5021817;28;20032;-72
2021/12/07 00:48:01;;;;;;;29.10;23.92;;;0.40;99.90;;;;;;5013841;28;20502;-73
2021/12/07 00:50:28;;;;;;;27.60;24.00;;;0.40;99.90;;;;;;5023112;28;20554;-73
2021/12/07 00:52:55;;;;;;;28.33;23.45;;;0.40;99.90;;;;;;5024268;28;20028;-72
2021/12/07 00:55:25;;;;;;;28.58;24.73;;;0.40;99.90;;;;;;5025122;28;20029;-73
2021/12/07 00:57:53;;;;;;;27.48;23.55;;;0.40;99.90;;;;;;5024002;28;20037;-72
2021/12/07 01:00:21;;;;;;;27.23;23.67;;;0.40;99.90;;;;;;5024195;28;20500;-72
2021/12/07 01:02:46;;;;;;;26.55;23.60;;;0.40;99.90;;;;;;5018598;28;20018;-71
2021/12/07 01:05:19;;;;;;;28.13;24.05;;;0.40;99.90;;;;;;5024830;28;20381;-72
2021/12/07 01:26:41;;;;;;;26.15;22.77;;;0.40;99.90;;;;;;5020955;28;20133;-71
2021/12/07 01:29:06;;;;;;;23.88;21.27;;;0.40;99.90;;;;;;5027217;28;20116;-72
2021/12/07 01:31:48;;;;;;;24.58;21.92;;;0.50;99.90;;;;;;5028297;28;20018;-71
2021/12/07 01:34:42;;;;;;;25.73;22.88;;;0.40;99.90;;;;;;5016572;28;20021;-71
2021/12/07 01:45:26;;;;;;;28.83;24.92;;;0.50;99.90;;;;;;5014555;28;20064;-73
2021/12/07 02:01:45;;;;;;;29.70;26.15;;;0.60;99.90;;;;;;5014085;28;20095;-73
2021/12/07 02:04:11;;;;;;;29.98;25.73;;;0.60;99.90;;;;;;5013735;28;20524;-73
2021/12/07 02:06:36;;;;;;;30.25;25.85;;;0.60;99.90;;;;;;5012098;28;20108;-74
2021/12/07 02:09:06;;;;;;;27.00;24.10;;;0.60;99.90;;;;;;5013853;28;20159;-74
2021/12/07 02:11:32;;;;;;;29.73;25.10;;;0.60;99.90;;;;;;5012113;28;20443;-74
2021/12/07 02:16:28;;;;;;;30.45;26.27;;;0.60;99.90;;;;;;5033677;28;20087;-74
2021/12/07 02:18:54;;;;;;;28.70;24.80;;;0.60;99.90;;;;;;5033448;28;20103;-75
2021/12/07 02:21:25;;;;;;;26.90;23.70;;;0.80;99.90;;;;;;5031960;28;20464;-75
2021/12/07 02:23:52;;;;;;;30.15;25.33;;;0.70;99.90;;;;;;5032035;28;20472;-74
2021/12/07 02:26:18;;;;;;;29.67;26.48;;;0.60;99.90;;;;;;5031686;28;20034;-74
2021/12/07 02:28:44;;;;;;;28.08;24.58;;;0.60;99.90;;;;;;5031860;28;20445;-74
2021/12/07 02:31:11;;;;;;;30.20;26.08;;;0.60;99.90;;;;;;5015895;28;20044;-73
2021/12/07 02:33:37;;;;;;;31.70;26.25;;;0.60;99.90;;;;;;5013228;28;20025;-72
2021/12/07 02:36:04;;;;;;;31.00;25.88;;;0.60;99.90;;;;;;5013096;28;20377;-72
2021/12/07 02:38:30;;;;;;;30.70;25.50;;;0.60;99.90;;;;;;5013318;28;20133;-72
2021/12/07 02:40:55;;;;;;;29.30;26.10;;;0.60;99.90;;;;;;5012826;28;20507;-72
2021/12/07 02:43:21;;;;;;;29.75;26.55;;;0.60;99.90;;;;;;5013084;28;20040;-71
2021/12/07 02:45:47;;;;;;;29.05;25.85;;;0.60;99.90;;;;;;5012870;28;20029;-71
2021/12/07 02:48:12;;;;;;;31.80;26.13;;;0.60;99.90;;;;;;5011798;28;20086;-71
2021/12/07 02:50:38;;;;;;;32.10;27.38;;;0.50;99.90;;;;;;5012929;28;20539;-71
2021/12/07 02:53:04;;;;;;;33.95;28.38;;;0.60;99.90;;;;;;5013077;28;20475;-72
2021/12/07 02:55:32;;;;;;;32.08;26.83;;;0.50;99.90;;;;;;5013283;28;20036;-71
2021/12/07 02:57:58;;;;;;;34.08;27.38;;;0.50;99.90;;;;;;5012657;28;20022;-72
2021/12/07 03:00:30;;;;;;;36.35;29.27;;;0.50;99.90;;;;;;5012803;28;20033;-73
2021/12/07 03:03:02;;;;;;;34.25;30.40;;;0.40;99.90;;;;;;5012729;28;20014;-74
2021/12/07 03:26:39;;;;;;;57.83;42.08;;;0.20;99.90;;;;;;4999986;28;20084;-71
2021/12/07 03:29:04;;;;;;;60.33;43.05;;;0.10;99.90;;;;;;5012132;28;20030;-72
2021/12/07 03:31:30;;;;;;;54.72;41.38;;;0.10;99.90;;;;;;5012443;28;20420;-73
2021/12/07 03:33:58;;;;;;;54.35;40.05;;;0.10;99.90;;;;;;5010608;28;20030;-73
2021/12/07 03:36:24;;;;;;;55.78;42.15;;;0.10;99.90;;;;;;5010962;28;20468;-72
2021/12/07 03:38:50;;;;;;;65.80;45.28;;;0.10;99.90;;;;;;5010796;28;20061;-73
2021/12/07 03:41:18;;;;;;;54.78;41.75;;;0.10;99.90;;;;;;5010880;28;20059;-73
2021/12/07 03:43:43;;;;;;;53.10;40.22;;;0.10;99.90;;;;;;5012258;28;20116;-73
2021/12/07 03:46:10;;;;;;;59.20;42.45;;;0.10;99.90;;;;;;5011900;28;20093;-72
2021/12/07 03:48:37;;;;;;;54.15;40.00;;;0.10;99.90;;;;;;5012148;28;20026;-72
2021/12/07 03:51:04;;;;;;;60.03;42.63;;;0.10;99.90;;;;;;5010727;28;20073;-72
2021/12/07 03:53:30;;;;;;;57.30;42.38;;;0.10;99.90;;;;;;5011819;28;20113;-72
2021/12/07 03:55:57;;;;;;;53.83;39.92;;;0.10;99.90;;;;;;5011649;28;20026;-72
2021/12/07 03:58:24;;;;;;;60.35;43.25;;;0.10;99.90;;;;;;5020257;28;20400;-72
2021/12/07 04:00:49;;;;;;;60.65;42.90;;;0.10;99.90;;;;;;5010905;28;20176;-72
2021/12/07 04:03:16;;;;;;;61.08;42.88;;;0.10;99.90;;;;;;5012874;28;20528;-73
2021/12/07 04:05:49;;;;;;;64.90;45.45;;;0.10;99.90;;;;;;5031380;28;20029;-73
2021/12/07 04:08:17;;;;;;;63.42;44.92;;;0.00;99.90;;;;;;5013571;28;20384;-72
2021/12/07 04:10:43;;;;;;;55.38;40.40;;;0.00;99.90;;;;;;5013827;28;20518;-73
2021/12/07 04:13:09;;;;;;;53.08;39.80;;;0.20;99.90;;;;;;5010471;28;20030;-73
2021/12/07 04:15:35;;;;;;;65.50;44.95;;;0.00;99.90;;;;;;5011189;28;20153;-73
2021/12/07 04:18:02;;;;;;;54.30;39.70;;;0.00;99.90;;;;;;5019407;28;20033;-73
2021/12/07 04:20:27;;;;;;;57.17;41.20;;;0.10;99.90;;;;;;5015613;28;20492;-73
2021/12/07 04:22:54;;;;;;;52.22;39.75;;;0.10;99.90;;;;;;5015636;28;20049;-72
2021/12/07 04:25:20;;;;;;;56.55;40.60;;;0.10;99.90;;;;;;5015315;28;20145;-72
2021/12/07 04:27:46;;;;;;;51.80;38.42;;;0.10;99.90;;;;;;5015565;28;20108;-73
2021/12/07 04:30:18;;;;;;;48.80;36.90;;;0.10;99.90;;;;;;5015797;28;20026;-73
2021/12/07 04:32:44;;;;;;;50.78;38.20;;;0.10;99.90;;;;;;5015632;28;20026;-72
2021/12/07 04:35:11;;;;;;;46.38;35.55;;;0.10;99.90;;;;;;5015235;28;20172;-73
2021/12/07 04:37:37;;;;;;;49.17;36.95;;;0.10;99.90;;;;;;5018951;28;20022;-72
2021/12/07 04:40:05;;;;;;;49.80;38.25;;;0.20;99.90;;;;;;5014024;28;20115;-72
2021/12/07 04:42:31;;;;;;;51.05;37.65;;;0.20;99.90;;;;;;5015102;28;20026;-73
2021/12/07 04:45:00;;;;;;;47.60;36.85;;;0.20;99.90;;;;;;5014000;28;20381;-73
2021/12/07 04:47:39;;;;;;;47.90;37.65;;;0.20;99.90;;;;;;5020495;28;20017;-73
2021/12/07 04:50:28;;;;;;;48.30;36.47;;;0.20;99.90;;;;;;5009181;28;20144;-73
2021/12/07 04:58:24;;;;;;;48.13;37.72;;;0.20;99.90;;;;;;5014923;28;20032;-73
2021/12/07 05:00:50;;;;;;;45.55;35.40;;;0.30;99.90;;;;;;5013548;28;20029;-73
2021/12/07 05:03:16;;;;;;;46.50;36.75;;;0.40;99.90;;;;;;5015009;28;20488;-73
2021/12/07 05:05:47;;;;;;;51.80;38.78;;;0.30;99.90;;;;;;5014762;28;20101;-73
2021/12/07 05:08:16;;;;;;;50.00;38.45;;;0.30;99.90;;;;;;5014932;28;20169;-73
2021/12/07 05:13:30;;;;;;;57.53;41.40;;;0.40;99.90;;;;;;5015108;28;20065;-71
2021/12/07 05:16:09;;;;;;;53.53;39.60;;;0.30;99.90;;;;;;5014741;28;20022;-72
2021/12/07 05:24:08;;;;;;;53.72;40.42;;;0.30;99.90;;;;;;5007793;28;20117;-72
2021/12/07 05:37:49;;;;;;;58.50;43.47;;;0.40;99.90;;;;;;5019478;28;20033;-73
2021/12/07 05:40:27;;;;;;;62.15;47.72;;;0.40;99.90;;;;;;5013065;28;20029;-71
2021/12/07 05:42:53;;;;;;;65.25;43.13;;;0.40;99.90;;;;;;5019392;28;20033;-72
2021/12/07 05:45:23;;;;;;;61.17;42.97;;;0.40;99.90;;;;;;5033472;28;20483;-72
2021/12/07 05:47:49;;;;;;;59.88;43.20;;;0.40;99.90;;;;;;5013100;28;20018;-72
2021/12/07 05:50:18;;;;;;;61.40;42.92;;;0.40;99.90;;;;;;5015311;28;20128;-71
2021/12/07 05:52:44;;;;;;;62.20;43.10;;;0.40;99.90;;;;;;5033978;28;20021;-71
2021/12/07 05:55:09;;;;;;;55.90;41.80;;;0.40;99.90;;;;;;5017467;28;20026;-71
2021/12/07 05:57:36;;;;;;;56.72;42.47;;;0.40;99.90;;;;;;5014151;28;20026;-72
2021/12/07 06:00:06;;;;;;;68.25;46.33;;;0.50;99.90;;;;;;5013896;28;20034;-72
2021/12/07 06:02:31;;;;;;;64.03;44.20;;;0.40;99.90;;;;;;5013850;28;20024;-72
2021/12/07 06:04:57;;;;;;;73.45;48.60;;;0.40;99.90;;;;;;5013545;28;20026;-72
2021/12/07 06:07:22;;;;;;;69.47;48.05;;;0.40;99.90;;;;;;5014849;28;20038;-72
2021/12/07 06:09:48;;;;;;;75.68;49.55;;;0.40;99.90;;;;;;5020504;28;20030;-73
2021/12/07 06:12:13;;;;;;;69.55;45.40;;;0.40;99.90;;;;;;5018832;28;20445;-72
2021/12/07 06:14:43;;;;;;;65.90;44.35;;;0.50;99.90;;;;;;5018339;28;20022;-73
2021/12/07 06:17:09;;;;;;;64.72;45.60;;;0.50;99.90;;;;;;5013800;28;20049;-72
2021/12/07 06:19:35;;;;;;;68.68;44.80;;;0.50;99.90;;;;;;5012219;28;20049;-72
2021/12/07 06:22:00;;;;;;;70.88;44.90;;;0.50;99.90;;;;;;5013689;28;20050;-71
2021/12/07 06:24:26;;;;;;;61.60;44.85;;;0.50;99.90;;;;;;5015725;28;20017;-73
2021/12/07 06:26:51;;;;;;;65.32;44.65;;;0.50;99.90;;;;;;5024672;28;20072;-72
2021/12/07 06:29:17;;;;;;;63.03;43.38;;;0.50;99.90;;;;;;5015567;28;20060;-73
2021/12/07 06:31:43;;;;;;;70.65;46.35;;;0.50;99.90;;;;;;5033184;28;20021;-73
2021/12/07 06:34:12;;;;;;;71.65;46.72;;;0.50;99.90;;;;;;5017399;28;20550;-72
2021/12/07 06:36:40;;;;;;;64.32;43.45;;;0.60;99.90;;;;;;5012772;28;20034;-74
2021/12/07 06:39:08;;;;;;;65.18;44.40;;;0.50;99.90;;;;;;5011806;28;20025;-72
2021/12/07 06:41:34;;;;;;;65.38;44.30;;;0.60;99.90;;;;;;5014673;28;20033;-72
2021/12/07 06:44:00;;;;;;;60.22;44.70;;;0.50;99.90;;;;;;5013051;28;20018;-72
2021/12/07 06:46:25;;;;;;;63.25;43.85;;;0.50;99.90;;;;;;5013299;28;20026;-72
2021/12/07 06:48:51;;;;;;;65.15;43.10;;;0.50;99.90;;;;;;5011841;28;20030;-73
2021/12/07 06:51:16;;;;;;;66.60;43.38;;;0.60;99.90;;;;;;5011968;28;20052;-72
2021/12/07 06:53:42;;;;;;;55.97;40.47;;;0.50;99.90;;;;;;5026233;28;20041;-71
2021/12/07 06:56:08;;;;;;;64.72;42.22;;;0.60;99.90;;;;;;5012808;28;21004;-72
2021/12/07 06:58:35;;;;;;;57.15;39.72;;;0.60;99.90;;;;;;5012926;28;20014;-73
2021/12/07 07:01:03;;;;;;;57.72;40.80;;;0.60;99.90;;;;;;5011385;28;20488;-73
2021/12/07 07:03:28;;;;;;;59.20;38.05;;;0.60;99.90;;;;;;5011922;28;20057;-73
2021/12/07 07:05:54;;;;;;;48.38;35.17;;;0.60;99.90;;;;;;5012644;28;20104;-73
2021/12/07 07:08:19;;;;;;;46.90;35.20;;;0.70;99.90;;;;;;5026204;28;20063;-72
2021/12/07 07:10:46;;;;;;;43.30;33.28;;;0.70;99.90;;;;;;5021152;28;20116;-73
2021/12/07 07:13:12;;;;;;;82.15;50.63;;;0.70;99.90;;;;;;5019157;28;20025;-72
2021/12/07 07:15:38;;;;;;;42.58;30.80;;;0.70;99.90;;;;;;5021138;28;20030;-72
2021/12/07 07:18:04;;;;;;;39.20;30.15;;;0.70;99.90;;;;;;5012528;28;20029;-73
2021/12/07 07:20:29;;;;;;;46.38;32.38;;;0.70;99.90;;;;;;5022208;28;20037;-72
2021/12/07 07:22:55;;;;;;;38.70;28.30;;;0.80;99.90;;;;;;5018916;28;20028;-72
2021/12/07 07:25:20;;;;;;;34.47;26.02;;;0.80;99.90;;;;;;5031987;28;20036;-72
2021/12/07 07:27:47;;;;;;;37.22;26.70;;;0.80;99.90;;;;;;5015907;28;20025;-72
2021/12/07 07:30:15;;;;;;;33.95;25.90;;;0.80;99.90;;;;;;5012488;28;20034;-72
2021/12/07 07:32:40;;;;;;;34.33;26.38;;;0.90;99.90;;;;;;5012047;28;20109;-72
2021/12/07 07:35:09;;;;;;;30.00;23.08;;;0.90;99.90;;;;;;5010936;28;20121;-72
2021/12/07 07:37:35;;;;;;;27.52;21.65;;;0.90;99.90;;;;;;5029067;28;20531;-73
2021/12/07 07:40:02;;;;;;;25.73;19.38;;;0.90;99.90;;;;;;5031967;28;20079;-72
2021/12/07 07:42:27;;;;;;;23.90;17.98;;;1.00;99.90;;;;;;5013585;28;20018;-72
2021/12/07 07:44:53;;;;;;;21.00;16.73;;;1.00;99.90;;;;;;5010617;28;20018;-72
2021/12/07 07:47:18;;;;;;;19.73;16.88;;;1.00;99.90;;;;;;5028640;28;20052;-72
2021/12/07 07:49:44;;;;;;;13.23;11.68;;;1.10;99.90;;;;;;5030457;28;20021;-73
2021/12/07 07:52:09;;;;;;;20.38;16.33;;;1.20;99.90;;;;;;5026683;28;20041;-72
2021/12/07 07:54:35;;;;;;;22.63;17.33;;;1.20;99.90;;;;;;5010690;28;20026;-72
2021/12/07 07:57:01;;;;;;;19.27;13.82;;;1.10;99.90;;;;;;5025218;28;20026;-72
2021/12/07 07:59:26;;;;;;;14.35;12.10;;;1.10;99.90;;;;;;5020660;28;20040;-72
2021/12/07 08:01:52;;;;;;;15.75;13.45;;;1.00;99.90;;;;;;5028722;28;20029;-72
2021/12/07 08:04:17;;;;;;;15.85;12.15;;;1.00;99.90;;;;;;5021031;28;20112;-73
2021/12/07 08:06:43;;;;;;;18.52;12.27;;;0.90;99.90;;;;;;5017636;28;20468;-73
2021/12/07 08:09:08;;;;;;;15.73;12.50;;;1.00;99.90;;;;;;5012227;28;20381;-72
2021/12/07 08:11:34;;;;;;;17.38;13.02;;;1.00;99.90;;;;;;5029763;28;20163;-73
2021/12/07 08:14:00;;;;;;;19.60;13.93;;;1.00;99.90;;;;;;5031703;28;20057;-73
2021/12/07 08:16:26;;;;;;;16.45;14.15;;;1.00;99.90;;;;;;5026956;28;20370;-73
2021/12/07 08:18:52;;;;;;;19.00;15.13;;;1.00;99.90;;;;;;5011886;28;20026;-71
2021/12/07 08:21:19;;;;;;;18.77;15.13;;;1.10;99.90;;;;;;5028266;28;20057;-72
2021/12/07 08:23:45;;;;;;;18.30;13.32;;;1.10;99.90;;;;;;5030476;28;20025;-72
2021/12/07 08:26:16;;;;;;;18.92;15.23;;;1.10;99.90;;;;;;5018322;28;20049;-72
2021/12/07 08:28:41;;;;;;;18.50;15.50;;;1.10;99.90;;;;;;5015935;28;20021;-72
2021/12/07 08:31:08;;;;;;;24.13;17.63;;;1.00;99.90;;;;;;5013185;28;20452;-71
2021/12/07 08:33:34;;;;;;;18.67;15.95;;;1.10;99.90;;;;;;5014152;28;20443;-72
2021/12/07 08:36:00;;;;;;;22.90;15.88;;;1.00;99.90;;;;;;5007975;28;20030;-72
2021/12/07 08:38:27;;;;;;;19.02;14.65;;;1.00;99.90;;;;;;5015496;28;20054;-72
2021/12/07 08:40:55;;;;;;;26.15;21.92;;;1.00;99.90;;;;;;5011510;28;20021;-72
2021/12/07 08:43:27;;;;;;;19.50;16.08;;;1.00;99.90;;;;;;5023017;28;20034;-72
2021/12/07 08:45:54;;;;;;;19.05;16.17;;;1.00;99.90;;;;;;5012450;28;20472;-72
2021/12/07 08:48:20;;;;;;;22.33;17.35;;;1.00;99.90;;;;;;5023327;28;20030;-72
2021/12/07 08:50:47;;;;;;;23.63;17.73;;;1.00;99.90;;;;;;5025760;28;20026;-73
2021/12/07 08:53:16;;;;;;;19.15;16.15;;;1.00;99.90;;;;;;5011746;28;20049;-73
2021/12/07 09:01:16;;;;;;;27.70;21.08;;;1.10;99.90;;;;;;5011351;28;20085;-72
2021/12/07 09:03:42;;;;;;;29.38;22.58;;;1.00;99.90;;;;;;5028378;28;20116;-72
2021/12/07 09:06:09;;;;;;;22.65;20.10;;;1.10;99.90;;;;;;5027020;28;20022;-72
2021/12/07 09:08:35;;;;;;;31.38;24.83;;;1.10;99.90;;;;;;5021716;28;20034;-72
2021/12/07 09:11:03;;;;;;;31.42;25.42;;;1.10;99.90;;;;;;5022842;28;20026;-72
2021/12/07 09:13:28;;;;;;;30.40;23.95;;;1.00;99.90;;;;;;5030638;28;20022;-72
2021/12/07 09:15:55;;;;;;;26.80;21.70;;;1.00;99.90;;;;;;5022501;28;20018;-73
2021/12/07 09:18:21;;;;;;;47.53;30.60;;;1.00;99.90;;;;;;5028135;28;20598;-72
2021/12/07 09:20:47;;;;;;;25.95;21.92;;;1.00;99.90;;;;;;5027092;28;20033;-72
2021/12/07 09:23:13;;;;;;;29.90;24.70;;;1.00;99.90;;;;;;5021312;28;20468;-72
2021/12/07 09:25:38;;;;;;;31.73;26.45;;;1.00;99.90;;;;;;5022370;28;20037;-72
2021/12/07 09:28:05;;;;;;;54.45;47.33;;;1.00;99.90;;;;;;5028088;28;20018;-71
2021/12/07 09:30:31;;;;;;;47.90;37.67;;;1.00;99.90;;;;;;5026754;28;20083;-72
2021/12/07 09:32:57;;;;;;;44.72;33.67;;;1.00;99.90;;;;;;5014489;28;20544;-72
2021/12/07 09:35:23;;;;;;;69.07;43.40;;;0.90;99.90;;;;;;5014526;28;20373;-72
2021/12/07 09:37:51;;;;;;;48.05;33.97;;;0.90;99.90;;;;;;5018838;28;20107;-72
2021/12/07 09:40:20;;;;;;;67.85;43.63;;;1.00;99.90;;;;;;5021895;28;20054;-72
2021/12/07 09:42:47;;;;;;;39.28;29.45;;;1.00;99.90;;;;;;5028050;28;20047;-71
2021/12/07 09:45:14;;;;;;;33.03;26.92;;;1.00;99.90;;;;;;5026990;28;20071;-72
2021/12/07 09:47:40;;;;;;;42.47;30.67;;;1.00;99.90;;;;;;5014578;28;20496;-72
2021/12/07 09:50:09;;;;;;;38.38;29.85;;;1.10;99.90;;;;;;5014315;28;20053;-72
2021/12/07 09:52:35;;;;;;;25.45;22.27;;;1.00;99.90;;;;;;5008000;28;20040;-72
2021/12/07 09:55:01;;;;;;;26.48;23.27;;;1.10;99.90;;;;;;5020735;28;20486;-72
2021/12/07 09:57:26;;;;;;;24.80;21.42;;;1.30;99.90;;;;;;5027603;28;20034;-72
2021/12/07 09:59:52;;;;;;;22.50;20.13;;;1.20;99.90;;;;;;5026908;28;20030;-73
2021/12/07 10:02:18;;;;;;;32.17;23.40;;;1.30;99.90;;;;;;5020488;28;20029;-72
2021/12/07 10:04:44;;;;;;;21.73;19.35;;;1.20;99.90;;;;;;5021111;28;20133;-72
2021/12/07 10:07:10;;;;;;;27.40;23.65;;;1.30;99.90;;;;;;5033258;28;20486;-73
2021/12/07 10:09:37;;;;;;;28.00;24.98;;;1.30;99.90;;;;;;5015100;28;20102;-72
2021/12/07 10:12:05;;;;;;;32.15;26.55;;;1.20;99.90;;;;;;5020292;28;20072;-72
2021/12/07 10:14:39;;;;;;;48.60;35.85;;;1.10;99.90;;;;;;5018354;28;20021;-72
2021/12/07 10:17:05;;;;;;;35.17;29.67;;;1.10;99.90;;;;;;5008313;28;20107;-72
2021/12/07 10:19:35;;;;;;;40.03;33.75;;;1.10;99.90;;;;;;5020253;28;20057;-72
2021/12/07 10:22:08;;;;;;;61.28;41.95;;;1.10;99.90;;;;;;5023897;28;20033;-72
2021/12/07 10:24:40;;;;;;;33.85;25.10;;;1.00;99.90;;;;;;5025540;28;20511;-72
2021/12/07 10:27:07;;;;;;;38.03;31.63;;;1.10;99.90;;;;;;5024127;28;20032;-72
2021/12/07 10:29:33;;;;;;;33.83;29.88;;;1.20;99.90;;;;;;5029520;28;20395;-73
2021/12/07 10:32:05;;;;;;;37.28;31.40;;;1.30;99.90;;;;;;5020177;28;20037;-72
2021/12/07 10:34:36;;;;;;;30.33;27.05;;;1.50;99.90;;;;;;5013291;28;20097;-73
2021/12/07 10:37:09;;;;;;;35.60;28.00;;;1.50;99.90;;;;;;5013483;28;20554;-72
2021/12/07 10:39:51;;;;;;;38.80;29.80;;;1.40;99.90;;;;;;5007109;28;20029;-72
2021/12/07 10:42:25;;;;;;;29.45;24.88;;;1.20;99.90;;;;;;5017412;28;20080;-72
2021/12/07 10:44:51;;;;;;;34.85;28.30;;;1.20;99.90;;;;;;5013028;28;20498;-72
2021/12/07 10:47:20;;;;;;;32.30;26.85;;;1.40;99.90;;;;;;5029677;28;20115;-72
2021/12/07 10:49:54;;;;;;;49.42;37.42;;;1.40;99.90;;;;;;5022815;28;20033;-72
2021/12/07 10:52:32;;;;;;;48.65;36.20;;;1.40;99.90;;;;;;5013096;28;20105;-72
2021/12/07 10:55:20;;;;;;;45.35;34.63;;;1.50;99.90;;;;;;5012437;28;20030;-72
2021/12/07 10:57:48;;;;;;;30.50;26.85;;;1.50;99.90;;;;;;5012208;28;20056;-72
2021/12/07 11:00:40;;;;;;;30.85;27.38;;;1.50;99.90;;;;;;5012631;28;20091;-72
2021/12/07 11:03:12;;;;;;;25.75;23.10;;;1.50;99.90;;;;;;5015901;28;20015;-72
2021/12/07 11:05:45;;;;;;;27.42;23.73;;;1.60;99.90;;;;;;5009966;28;20531;-73
2021/12/07 11:08:12;;;;;;;38.72;29.15;;;1.70;99.90;;;;;;5025783;28;20028;-72
2021/12/07 11:10:47;;;;;;;34.17;26.80;;;1.60;99.90;;;;;;5020654;28;20022;-72
2021/12/07 11:13:22;;;;;;;31.38;25.52;;;1.50;99.90;;;;;;5024545;28;20026;-73
2021/12/07 11:15:52;;;;;;;32.85;25.88;;;1.50;99.90;;;;;;5011027;28;20026;-72
2021/12/07 11:18:31;;;;;;;30.42;23.50;;;1.60;99.90;;;;;;5014122;28;20018;-74
2021/12/07 11:21:03;;;;;;;44.97;37.92;;;1.60;99.90;;;;;;5027216;28;20025;-74
2021/12/07 11:23:34;;;;;;;67.53;53.30;;;1.70;99.90;;;;;;5023627;28;20021;-74
2021/12/07 11:31:45;;;;;;;40.97;30.40;;;1.80;99.90;;;;;;5020215;28;20038;-73
2021/12/07 11:34:11;;;;;;;30.88;24.55;;;1.70;99.90;;;;;;5008634;28;20126;-73
2021/12/07 11:36:49;;;;;;;36.92;27.05;;;1.60;99.90;;;;;;5028065;28;20104;-73
2021/12/07 11:39:35;;;;;;;29.48;21.83;;;1.60;99.90;;;;;;5021938;28;20117;-73
2021/12/07 11:42:04;;;;;;;;;;;1.60;99.90;;;;;;5005823;28;20093;-74
2021/12/07 11:44:31;;;;;;;33.38;22.35;;;1.60;99.90;;;;;;5010980;28;19909;-73
2021/12/07 11:46:59;;;;;;;30.45;24.00;;;1.70;99.90;;;;;;5012120;28;20021;-73
2021/12/07 11:49:28;;;;;;;29.90;23.08;;;1.70;99.90;;;;;;5022715;28;20022;-73
2021/12/07 11:51:56;;;;;;;34.38;24.45;;;1.70;99.90;;;;;;5011727;28;20026;-73
2021/12/07 11:54:25;;;;;;;34.40;25.17;;;1.70;99.90;;;;;;5010761;28;20021;-74
2021/12/07 11:56:52;;;;;;;36.92;25.92;;;1.70;99.90;;;;;;5010751;28;20109;-73
2021/12/07 11:59:18;;;;;;;37.70;27.23;;;1.70;99.90;;;;;;5021746;28;20037;-73
2021/12/07 12:01:46;;;;;;;52.03;32.78;;;1.70;99.90;;;;;;5027597;28;20020;-73
2021/12/07 12:04:13;;;;;;;57.35;39.90;;;1.70;99.90;;;;;;5027335;28;20460;-73
2021/12/07 12:06:41;;;;;;;46.22;30.63;;;1.80;99.90;;;;;;5023564;28;20511;-73
2021/12/07 12:09:07;;;;;;;28.05;19.83;;;1.80;99.90;;;;;;5023611;28;20013;-73
2021/12/07 12:12:08;;;;;;;25.45;18.33;;;1.80;99.90;;;;;;5030750;28;20021;-73
2021/12/07 12:14:37;;;;;;;35.08;23.45;;;1.80;99.90;;;;;;5017364;28;20024;-73
2021/12/07 12:17:12;;;;;;;29.45;21.23;;;1.90;99.90;;;;;;5015353;28;20032;-73
2021/12/07 12:20:08;;;;;;;29.75;23.83;;;1.90;99.90;;;;;;5021149;28;20025;-73
2021/12/07 12:22:40;;;;;;;36.08;24.10;;;1.90;99.90;;;;;;5027076;28;20021;-73
2021/12/07 12:25:12;;;;;;;26.77;18.75;;;1.90;99.90;;;;;;5013480;28;20499;-73
2021/12/07 12:27:38;;;;;;;23.27;17.15;;;1.90;99.90;;;;;;5020350;28;20017;-74
2021/12/07 12:30:23;;;;;;;17.75;13.90;;;1.90;99.90;;;;;;5021545;28;20476;-74
2021/12/07 12:32:54;;;;;;;21.33;15.30;;;2.00;99.90;;;;;;5028234;28;20037;-72
2021/12/07 12:35:50;;;;;;;23.05;15.70;;;2.00;99.90;;;;;;5023072;28;20022;-72
2021/12/07 12:38:28;;;;;;;22.60;14.63;;;2.10;99.90;;;;;;5024607;28;20034;-72
2021/12/07 12:41:02;;;;;;;19.55;13.15;;;2.10;99.90;;;;;;5019141;28;20046;-72
2021/12/07 12:43:41;;;;;;;22.20;16.03;;;2.10;99.90;;;;;;5014464;28;20036;-73
2021/12/07 12:46:09;;;;;;;21.70;12.68;;;2.10;99.90;;;;;;5012633;28;20021;-72
2021/12/07 12:48:35;;;;;;;24.30;13.30;;;2.10;99.90;;;;;;5022987;28;20037;-72
2021/12/07 12:51:00;;;;;;;16.20;10.98;;;2.20;99.90;;;;;;5015277;28;20017;-72
2021/12/07 12:53:32;;;;;;;19.98;12.65;;;2.50;99.90;;;;;;5023921;28;20043;-72
2021/12/07 12:55:59;;;;;;;22.00;12.45;;;2.30;99.90;;;;;;5026467;28;20025;-73
2021/12/07 12:58:35;;;;;;;19.95;11.43;;;2.40;99.90;;;;;;5025445;28;20033;-72
2021/12/07 13:01:23;;;;;;;17.38;12.30;;;2.50;99.90;;;;;;5005959;28;20510;-73
2021/12/07 13:04:03;;;;;;;18.27;13.02;;;2.50;99.90;;;;;;5025326;28;20484;-72
2021/12/07 13:06:31;;;;;;;23.70;15.77;;;2.50;99.90;;;;;;5025809;28;20025;-72
2021/12/07 13:09:17;;;;;;;19.38;13.48;;;2.60;99.90;;;;;;5029830;28;20060;-72
2021/12/07 13:11:45;;;;;;;17.85;13.48;;;2.70;99.90;;;;;;5034054;28;20017;-72
2021/12/07 13:14:12;;;;;;;16.92;11.07;;;2.70;99.90;;;;;;5026368;28;20018;-72
2021/12/07 13:16:47;;;;;;;22.38;13.00;;;2.90;99.90;;;;;;5024472;28;20014;-73
2021/12/07 13:19:12;;;;;;;19.98;11.90;;;2.90;99.90;;;;;;5026508;28;20060;-71
2021/12/07 13:21:40;;;;;;;17.95;11.95;;;2.90;99.90;;;;;;5025662;28;20053;-72
2021/12/07 13:24:09;;;;;;;20.10;12.27;;;2.90;99.90;;;;;;5022340;28;20053;-72
2021/12/07 13:26:36;;;;;;;16.15;9.88;;;2.70;99.90;;;;;;5028191;28;20578;-72
2021/12/07 13:29:13;;;;;;;15.25;9.90;;;2.70;99.90;;;;;;5014566;28;20369;-72
2021/12/07 13:31:44;;;;;;;15.95;9.75;;;2.80;99.90;;;;;;5003743;28;20033;-72
2021/12/07 13:34:12;;;;;;;16.70;8.70;;;2.80;99.90;;;;;;5016897;28;20042;-73
2021/12/07 13:36:58;;;;;;;20.55;10.68;;;2.80;99.90;;;;;;5013261;28;20018;-72
2021/12/07 13:39:24;;;;;;;18.52;11.50;;;2.80;99.90;;;;;;5013468;28;20413;-73
2021/12/07 13:42:03;;;;;;;20.30;11.68;;;2.80;99.90;;;;;;5012985;28;20049;-72
2021/12/07 13:44:48;;;;;;;16.63;9.32;;;2.80;99.90;;;;;;5008525;28;20033;-72
2021/12/07 13:47:23;;;;;;;16.65;10.65;;;2.80;99.90;;;;;;5016151;28;20044;-72
2021/12/07 13:50:01;;;;;;;16.08;8.50;;;2.80;99.90;;;;;;5022613;28;20026;-72
2021/12/07 13:52:31;;;;;;;18.80;8.88;;;2.80;99.90;;;;;;5027582;28;20100;-72
2021/12/07 13:55:00;;;;;;;14.35;8.30;;;2.90;99.90;;;;;;5014092;28;20109;-71
2021/12/07 13:57:29;;;;;;;14.02;9.52;;;3.00;99.90;;;;;;5020907;28;20446;-72
2021/12/07 14:00:08;;;;;;;21.85;9.18;;;3.00;99.90;;;;;;5033788;28;20396;-72
2021/12/07 14:02:35;;;;;;;13.05;8.93;;;3.20;99.90;;;;;;5033863;28;20132;-72
2021/12/07 14:05:06;;;;;;;16.83;8.73;;;3.10;99.90;;;;;;5025333;28;20488;-72
2021/12/07 14:07:34;;;;;;;14.75;7.63;;;3.10;99.90;;;;;;5014439;28;20018;-72
2021/12/07 14:10:07;;;;;;;16.20;8.05;;;2.90;99.90;;;;;;5025939;28;20416;-72
2021/12/07 14:12:33;;;;;;;13.38;8.25;;;2.90;99.90;;;;;;5023694;28;20029;-72
2021/12/07 14:15:19;;;;;;;13.80;8.35;;;2.80;99.90;;;;;;5020295;28;20258;-72
2021/12/07 14:17:48;;;;;;;;;;;2.80;99.90;;;;;;5014377;28;20030;-73
2021/12/07 14:20:25;;;;;;;15.13;8.32;;;2.80;99.90;;;;;;5020282;28;19935;-72
2021/12/07 14:22:50;;;;;;;11.45;7.22;;;2.70;99.90;;;;;;5014757;28;20022;-72
2021/12/07 14:25:17;;;;;;;13.35;7.28;;;2.70;99.90;;;;;;5022707;28;20033;-73
2021/12/07 14:27:44;;;;;;;13.88;8.48;;;2.80;99.90;;;;;;5031767;28;20380;-72